Time;durP1;ratioP1;P1;durP2;ratioP2;P2;SDS_P1;SDS_P2;PMS_P1;PMS_P2;Temp;Humidity;BMP_temperature;BMP_pressure;BME280_temperature;BME280_humidity;BME280_pressure;Samples;Min_cycle;Max_cycle;Signal;HPM_P1;HPM_P2
2022/01/24 00:01:03;;;;;;;88.03;10.45;;;;;;;;;;4999608;28;20105;-36
2022/01/24 00:03:31;;;;;;;75.90;11.15;;;;;;;;;;4999955;28;20029;-34
2022/01/24 00:05:58;;;;;;;82.55;10.93;;;;;;;;;;5001041;28;20030;-35
2022/01/24 00:08:25;;;;;;;83.63;10.32;;;;;;;;;;5002097;28;20120;-34
2022/01/24 00:10:54;;;;;;;84.93;9.25;;;;;;;;;;5002597;28;20057;-33
2022/01/24 00:26:56;;;;;;;77.95;9.10;;;;;;;;;;4960667;28;20042;-33
2022/01/24 00:29:24;;;;;;;77.00;9.02;;;;;;;;;;5000929;28;20042;-32
2022/01/24 00:31:52;;;;;;;72.55;8.27;;;;;;;;;;4990726;28;20784;-35
2022/01/24 00:34:19;;;;;;;66.18;8.35;;;;;;;;;;5001414;28;20029;-32
2022/01/24 00:36:47;;;;;;;66.10;7.93;;;;;;;;;;5001623;28;20571;-33
2022/01/24 00:39:15;;;;;;;65.20;7.70;;;;;;;;;;5003547;28;20446;-33
2022/01/24 00:42:07;;;;;;;58.60;7.13;;;;;;;;;;4999993;28;20088;-33
2022/01/24 00:44:46;;;;;;;;;;;;;;;;;;4998645;28;20074;-33
2022/01/24 00:47:25;;;;;;;63.60;6.22;;;;;;;;;;4995008;28;19909;-33
2022/01/24 00:53:10;;;;;;;48.40;6.28;;;;;;;;;;5002801;28;20504;-34
2022/01/24 00:55:40;;;;;;;66.40;7.45;;;;;;;;;;4973011;28;20092;-39
2022/01/24 00:58:07;;;;;;;79.30;8.80;;;;;;;;;;5002670;28;20053;-34
2022/01/24 01:00:35;;;;;;;149.20;11.73;;;;;;;;;;5007473;28;20387;-33
2022/01/24 01:03:03;;;;;;;122.78;8.10;;;;;;;;;;5006813;28;20025;-35
2022/01/24 01:05:44;;;;;;;98.15;7.22;;;;;;;;;;4990945;28;20128;-34
2022/01/24 01:18:55;;;;;;;80.15;12.70;;;;;;;;;;5001495;28;20044;-33
2022/01/24 01:21:22;;;;;;;69.28;11.18;;;;;;;;;;5004046;28;20061;-33
2022/01/24 01:23:53;;;;;;;65.20;8.60;;;;;;;;;;4985905;28;20027;-33
2022/01/24 01:26:32;;;;;;;81.43;13.27;;;;;;;;;;5007773;28;20029;-34
2022/01/24 01:29:05;;;;;;;103.70;11.65;;;;;;;;;;4998613;28;20180;-33
2022/01/24 01:31:43;;;;;;;62.63;7.72;;;;;;;;;;4996627;28;20038;-33
2022/01/24 01:34:27;;;;;;;59.75;9.30;;;;;;;;;;4999499;28;20121;-33
2022/01/24 01:39:51;;;;;;;73.00;11.02;;;;;;;;;;5003255;28;20046;-34
2022/01/24 01:53:48;;;;;;;74.32;10.70;;;;;;;;;;5004331;28;20053;-33
2022/01/24 01:56:09;;;;;;;70.88;9.38;;;;;;;;;;5001097;28;20084;-33
2022/01/24 01:58:36;;;;;;;66.55;8.90;;;;;;;;;;5001912;28;20652;-33
2022/01/24 02:01:04;;;;;;;56.03;8.35;;;;;;;;;;4994962;28;20484;-34
2022/01/24 02:03:31;;;;;;;64.78;7.45;;;;;;;;;;5001421;28;20477;-33
2022/01/24 02:05:58;;;;;;;30.50;5.13;;;;;;;;;;4984242;28;20038;-33
2022/01/24 02:08:29;;;;;;;66.22;9.88;;;;;;;;;;4991959;28;20038;-34
2022/01/24 02:10:58;;;;;;;113.87;12.57;;;;;;;;;;4999757;28;20038;-33
2022/01/24 02:13:26;;;;;;;64.70;8.77;;;;;;;;;;4982574;28;20377;-33
2022/01/24 02:16:06;;;;;;;55.83;9.18;;;;;;;;;;4998924;28;20136;-33
2022/01/24 02:18:39;;;;;;;57.85;10.20;;;;;;;;;;4999495;28;20188;-32
2022/01/24 02:21:11;;;;;;;41.88;8.48;;;;;;;;;;5006812;28;20488;-33
2022/01/24 02:23:43;;;;;;;57.47;10.07;;;;;;;;;;5004351;28;20030;-33
2022/01/24 02:26:14;;;;;;;54.45;9.85;;;;;;;;;;5003170;28;20085;-33
2022/01/24 02:33:49;;;;;;;68.30;11.07;;;;;;;;;;5011701;28;20038;-33
2022/01/24 02:36:33;;;;;;;100.30;12.85;;;;;;;;;;5000594;28;20049;-34
2022/01/24 02:50:42;;;;;;;46.10;10.38;;;;;;;;;;4921096;29;20154;-33
2022/01/24 02:53:10;;;;;;;81.90;11.18;;;;;;;;;;4977017;28;20050;-34
2022/01/24 02:55:38;;;;;;;94.25;11.95;;;;;;;;;;5003562;28;20542;-34
2022/01/24 02:58:05;;;;;;;99.40;10.98;;;;;;;;;;5003616;28;20028;-34
2022/01/24 03:00:33;;;;;;;63.58;7.75;;;;;;;;;;5009752;28;20021;-33
2022/01/24 03:03:00;;;;;;;62.40;6.85;;;;;;;;;;4999168;28;20857;-33
2022/01/24 03:05:27;;;;;;;66.05;7.15;;;;;;;;;;5006791;28;20018;-33
2022/01/24 03:07:54;;;;;;;57.35;6.38;;;;;;;;;;5007917;28;20045;-33
2022/01/24 03:10:35;;;;;;;58.88;6.70;;;;;;;;;;5003646;28;20069;-33
2022/01/24 03:15:38;;;;;;;51.45;4.22;;;;;;;;;;5002844;28;20172;-33
2022/01/24 03:18:06;;;;;;;51.85;5.60;;;;;;;;;;5001829;28;20033;-33
2022/01/24 03:20:33;;;;;;;60.08;6.70;;;;;;;;;;5002533;28;20026;-32
2022/01/24 03:23:01;;;;;;;51.08;4.80;;;;;;;;;;5012574;28;20092;-33
2022/01/24 03:25:28;;;;;;;44.72;4.43;;;;;;;;;;5011630;28;20045;-33
2022/01/24 03:27:59;;;;;;;39.83;4.20;;;;;;;;;;5011877;28;20030;-34
2022/01/24 03:30:28;;;;;;;43.95;4.53;;;;;;;;;;4977494;28;20042;-36
2022/01/24 03:32:56;;;;;;;64.03;6.15;;;;;;;;;;4993158;28;20042;-35
2022/01/24 03:35:23;;;;;;;40.60;5.10;;;;;;;;;;4996352;28;20060;-34
2022/01/24 03:37:50;;;;;;;29.58;4.68;;;;;;;;;;4988600;28;20034;-33
2022/01/24 03:40:17;;;;;;;27.55;4.70;;;;;;;;;;5012183;28;20049;-34
2022/01/24 03:42:44;;;;;;;35.22;4.30;;;;;;;;;;5006148;28;20046;-35
2022/01/24 03:45:12;;;;;;;43.28;5.53;;;;;;;;;;5011298;28;20033;-34
2022/01/24 03:47:56;;;;;;;52.75;5.60;;;;;;;;;;5011733;28;20121;-33
2022/01/24 03:50:23;;;;;;;37.95;4.93;;;;;;;;;;5011739;28;20038;-34
2022/01/24 03:52:51;;;;;;;23.77;3.80;;;;;;;;;;5009737;28;20583;-33
2022/01/24 03:55:18;;;;;;;42.08;5.15;;;;;;;;;;5011690;28;20026;-33
2022/01/24 03:57:45;;;;;;;26.77;3.50;;;;;;;;;;5012520;28;20022;-34
2022/01/24 04:00:12;;;;;;;43.03;4.40;;;;;;;;;;5012208;28;20136;-34
2022/01/24 04:02:39;;;;;;;34.17;4.35;;;;;;;;;;5012870;28;20096;-34
2022/01/24 04:05:06;;;;;;;39.95;4.15;;;;;;;;;;5012571;28;20128;-33
2022/01/24 04:07:34;;;;;;;59.88;5.03;;;;;;;;;;5012423;28;20021;-33
2022/01/24 04:10:06;;;;;;;55.03;5.38;;;;;;;;;;5012612;28;20531;-34
2022/01/24 04:12:36;;;;;;;48.67;4.30;;;;;;;;;;5012075;28;20439;-33
2022/01/24 04:15:12;;;;;;;38.90;4.40;;;;;;;;;;5012621;28;20034;-34
2022/01/24 04:17:45;;;;;;;29.35;4.07;;;;;;;;;;5011865;28;20038;-33
2022/01/24 04:23:01;;;;;;;14.55;3.97;;;;;;;;;;5012507;28;20116;-33
2022/01/24 04:25:28;;;;;;;16.58;3.55;;;;;;;;;;5012108;28;20037;-33
2022/01/24 04:27:55;;;;;;;20.75;3.85;;;;;;;;;;5012791;28;20026;-33
2022/01/24 04:30:23;;;;;;;17.02;3.30;;;;;;;;;;5011742;28;20021;-33
2022/01/24 04:32:50;;;;;;;24.45;3.58;;;;;;;;;;5012385;28;20030;-34
2022/01/24 04:35:17;;;;;;;14.05;2.90;;;;;;;;;;5011729;28;20519;-33
2022/01/24 04:37:44;;;;;;;34.95;4.75;;;;;;;;;;5012444;28;20022;-33
2022/01/24 04:40:11;;;;;;;37.22;4.28;;;;;;;;;;5012296;28;20029;-32
2022/01/24 04:42:46;;;;;;;17.55;2.85;;;;;;;;;;5011538;28;20049;-33
2022/01/24 04:45:33;;;;;;;16.58;2.83;;;;;;;;;;5011695;28;20034;-33
2022/01/24 04:51:02;;;;;;;18.77;2.53;;;;;;;;;;5012589;28;20043;-33
2022/01/24 04:56:06;;;;;;;15.90;2.72;;;;;;;;;;5012029;28;20038;-33
2022/01/24 04:58:33;;;;;;;10.05;2.92;;;;;;;;;;5012021;28;20109;-33
2022/01/24 05:00:59;;;;;;;7.15;2.83;;;;;;;;;;5011455;28;20037;-33
2022/01/24 05:03:27;;;;;;;5.90;2.53;;;;;;;;;;5011967;28;20026;-33
2022/01/24 05:05:54;;;;;;;14.00;2.40;;;;;;;;;;4993507;28;20030;-33
2022/01/24 05:08:20;;;;;;;6.40;2.25;;;;;;;;;;5011930;28;20029;-33
2022/01/24 05:11:01;;;;;;;5.93;2.42;;;;;;;;;;5011749;28;20045;-33
2022/01/24 05:24:23;;;;;;;14.25;2.90;;;;;;;;;;5011439;28;20504;-33
2022/01/24 05:26:50;;;;;;;8.00;2.25;;;;;;;;;;5011653;28;20488;-33
2022/01/24 05:29:17;;;;;;;12.07;2.33;;;;;;;;;;5011247;28;20026;-33
2022/01/24 05:31:44;;;;;;;10.02;1.83;;;;;;;;;;5011346;28;20033;-33
2022/01/24 05:34:11;;;;;;;25.10;2.90;;;;;;;;;;5011476;28;20088;-34
2022/01/24 05:36:38;;;;;;;28.67;4.20;;;;;;;;;;5011349;28;20025;-33
2022/01/24 05:39:05;;;;;;;25.50;3.67;;;;;;;;;;5011607;28;20439;-33
2022/01/24 05:41:33;;;;;;;34.45;4.22;;;;;;;;;;5011528;28;20060;-33
2022/01/24 05:44:00;;;;;;;20.67;3.55;;;;;;;;;;5010975;28;20129;-33
2022/01/24 05:46:26;;;;;;;34.95;3.55;;;;;;;;;;5011252;28;20388;-33
2022/01/24 05:48:54;;;;;;;27.45;3.28;;;;;;;;;;5011239;28;20498;-33
2022/01/24 05:51:22;;;;;;;20.83;2.70;;;;;;;;;;5011543;28;20046;-33
2022/01/24 05:53:49;;;;;;;20.20;2.92;;;;;;;;;;5010998;28;20033;-34
2022/01/24 05:56:16;;;;;;;17.45;2.45;;;;;;;;;;5011320;28;20411;-33
2022/01/24 05:58:43;;;;;;;12.82;2.10;;;;;;;;;;5014269;28;20091;-35
2022/01/24 06:01:10;;;;;;;9.35;2.40;;;;;;;;;;5015096;28;20030;-34
2022/01/24 06:03:37;;;;;;;12.57;2.10;;;;;;;;;;5015221;28;20514;-34
2022/01/24 06:06:04;;;;;;;8.13;1.80;;;;;;;;;;5014403;28;20052;-33
2022/01/24 06:08:31;;;;;;;11.65;2.30;;;;;;;;;;5014905;28;20040;-33
2022/01/24 06:10:58;;;;;;;12.43;1.90;;;;;;;;;;5014435;28;20037;-34
2022/01/24 06:13:26;;;;;;;9.00;2.10;;;;;;;;;;5015025;28;20026;-33
2022/01/24 06:15:53;;;;;;;13.38;2.10;;;;;;;;;;5014841;28;20022;-34
2022/01/24 06:18:21;;;;;;;7.60;2.20;;;;;;;;;;5014588;28;20029;-33
2022/01/24 06:20:48;;;;;;;12.48;2.30;;;;;;;;;;5014909;28;20104;-33
2022/01/24 06:23:15;;;;;;;11.75;2.10;;;;;;;;;;5014292;28;20061;-33
2022/01/24 06:25:43;;;;;;;7.05;2.08;;;;;;;;;;5014824;28;20120;-33
2022/01/24 06:28:10;;;;;;;7.68;2.10;;;;;;;;;;5014151;28;20026;-33
2022/01/24 06:31:01;;;;;;;9.77;2.08;;;;;;;;;;5130002;22;20032;31
2022/01/24 06:33:28;;;;;;;7.60;1.67;;;;;;;;;;4965749;28;20053;-37
2022/01/24 06:35:55;;;;;;;6.72;2.00;;;;;;;;;;4974787;28;20150;-36
2022/01/24 06:38:22;;;;;;;10.60;2.13;;;;;;;;;;4975085;28;20038;-36
2022/01/24 06:40:49;;;;;;;6.57;2.05;;;;;;;;;;4974709;28;20034;-37
2022/01/24 06:43:16;;;;;;;8.18;1.90;;;;;;;;;;4974844;28;20035;-37
2022/01/24 06:45:43;;;;;;;5.97;1.60;;;;;;;;;;4974894;28;20424;-37
2022/01/24 06:48:10;;;;;;;8.23;1.75;;;;;;;;;;4974066;28;20037;-35
2022/01/24 06:50:37;;;;;;;5.93;1.75;;;;;;;;;;4974496;28;20038;-37
2022/01/24 06:53:04;;;;;;;7.30;1.65;;;;;;;;;;4974122;28;20034;-36
2022/01/24 06:55:31;;;;;;;3.83;1.63;;;;;;;;;;4974710;28;20111;-36
2022/01/24 06:57:58;;;;;;;6.63;1.50;;;;;;;;;;4974407;28;20393;-36
2022/01/24 07:00:30;;;;;;;8.10;1.70;;;;;;;;;;4974610;28;20034;-35
2022/01/24 07:02:57;;;;;;;;;;;;;;;;;;4974902;28;20034;-37
2022/01/24 07:05:25;;;;;;;4.32;1.40;;;;;;;;;;4974163;28;19912;-36
2022/01/24 07:07:52;;;;;;;17.13;2.10;;;;;;;;;;4973935;28;20027;-36
2022/01/24 07:10:19;;;;;;;13.77;2.20;;;;;;;;;;4974330;28;20035;-36
2022/01/24 07:12:47;;;;;;;14.45;1.73;;;;;;;;;;4974181;28;20080;-35
2022/01/24 07:15:16;;;;;;;6.60;1.83;;;;;;;;;;4974413;28;20481;-36
2022/01/24 07:20:29;;;;;;;4.45;1.60;;;;;;;;;;4974515;28;20058;-36
2022/01/24 07:22:56;;;;;;;6.80;1.70;;;;;;;;;;4973994;28;20039;-37
2022/01/24 07:25:26;;;;;;;8.13;1.88;;;;;;;;;;4974343;28;20058;-39
2022/01/24 07:27:53;;;;;;;5.65;1.50;;;;;;;;;;4988898;28;20511;-35
2022/01/24 07:30:20;;;;;;;4.00;1.40;;;;;;;;;;4973610;28;20088;-35
2022/01/24 07:32:47;;;;;;;3.08;1.50;;;;;;;;;;4973859;28;20158;-36
2022/01/24 07:35:14;;;;;;;5.03;1.73;;;;;;;;;;4973625;28;20031;-35
2022/01/24 07:37:47;;;;;;;8.52;1.88;;;;;;;;;;4974011;28;20055;-36
2022/01/24 07:40:14;;;;;;;3.55;1.50;;;;;;;;;;4973707;28;20029;-37
2022/01/24 07:43:08;;;;;;;2.83;1.73;;;;;;;;;;4973276;28;20077;-36
2022/01/24 07:45:36;;;;;;;3.15;1.63;;;;;;;;;;4973994;28;20491;-37
2022/01/24 07:48:03;;;;;;;2.65;1.20;;;;;;;;;;4972975;28;20062;-36
2022/01/24 07:50:31;;;;;;;3.85;1.85;;;;;;;;;;4988569;28;20459;-36
2022/01/24 07:53:01;;;;;;;8.98;2.13;;;;;;;;;;4973484;28;20551;-37
2022/01/24 07:55:28;;;;;;;5.22;1.70;;;;;;;;;;4973340;28;20026;-36
2022/01/24 07:57:55;;;;;;;8.27;1.70;;;;;;;;;;4973344;28;20086;-36
2022/01/24 08:00:22;;;;;;;12.05;1.92;;;;;;;;;;4973074;28;20395;-36
2022/01/24 08:02:49;;;;;;;5.95;1.60;;;;;;;;;;4973637;28;20097;-35
2022/01/24 08:05:19;;;;;;;6.28;1.63;;;;;;;;;;4973313;28;20480;-40
2022/01/24 08:07:46;;;;;;;8.73;1.77;;;;;;;;;;4973107;28;20026;-34
2022/01/24 08:10:13;;;;;;;6.28;1.83;;;;;;;;;;4973089;28;20049;-34
2022/01/24 08:12:43;;;;;;;4.93;2.00;;;;;;;;;;4973079;28;20031;-35
2022/01/24 08:15:12;;;;;;;8.48;1.70;;;;;;;;;;4973139;28;20034;-34
2022/01/24 08:17:39;;;;;;;24.98;2.95;;;;;;;;;;4973169;28;20038;-34
2022/01/24 08:20:06;;;;;;;22.73;2.97;;;;;;;;;;4972430;28;20099;-35
2022/01/24 08:22:33;;;;;;;23.45;3.50;;;;;;;;;;4972995;28;20034;-34
2022/01/24 08:25:04;;;;;;;33.63;4.15;;;;;;;;;;4972712;28;20022;-34
2022/01/24 08:27:32;;;;;;;19.92;3.30;;;;;;;;;;4972944;28;20035;-34
2022/01/24 08:29:59;;;;;;;17.00;3.05;;;;;;;;;;4972562;28;20161;-34
2022/01/24 08:32:26;;;;;;;12.18;2.40;;;;;;;;;;4972742;28;20049;-33
2022/01/24 08:34:53;;;;;;;18.50;2.90;;;;;;;;;;4972824;28;20598;-35
2022/01/24 08:37:20;;;;;;;11.60;2.58;;;;;;;;;;4972686;28;20110;-34
2022/01/24 08:39:47;;;;;;;10.57;2.15;;;;;;;;;;4972348;28;20034;-34
2022/01/24 08:42:30;;;;;;;11.57;2.40;;;;;;;;;;4972794;28;20109;-37
2022/01/24 08:47:29;;;;;;;9.63;2.22;;;;;;;;;;4955691;28;20027;-34
2022/01/24 08:49:56;;;;;;;7.93;2.15;;;;;;;;;;4972742;28;20459;-34
2022/01/24 08:52:23;;;;;;;8.82;2.30;;;;;;;;;;4972094;28;20031;-34
2022/01/24 08:54:50;;;;;;;2.67;2.13;;;;;;;;;;4972653;28;20027;-33
2022/01/24 08:57:21;;;;;;;3.58;2.20;;;;;;;;;;4972071;28;20042;-36
2022/01/24 08:59:48;;;;;;;9.02;3.35;;;;;;;;;;4972393;28;20077;-34
2022/01/24 09:02:15;;;;;;;8.15;2.58;;;;;;;;;;4972518;28;20437;-35
2022/01/24 09:04:42;;;;;;;6.22;2.80;;;;;;;;;;4971758;28;20027;-35
2022/01/24 09:07:10;;;;;;;7.07;3.05;;;;;;;;;;4972648;28;20023;-33
2022/01/24 09:09:38;;;;;;;10.52;3.35;;;;;;;;;;4971821;28;20050;-35
2022/01/24 09:12:11;;;;;;;5.00;2.45;;;;;;;;;;4972438;28;20039;-34
2022/01/24 09:14:43;;;;;;;11.00;3.33;;;;;;;;;;4972648;28;20030;-34
2022/01/24 09:17:11;;;;;;;9.95;3.67;;;;;;;;;;4971796;28;20046;-35
2022/01/24 09:19:38;;;;;;;12.50;3.50;;;;;;;;;;4972455;28;20175;-35
2022/01/24 09:22:05;;;;;;;9.52;3.60;;;;;;;;;;4971797;28;20027;-35
2022/01/24 09:24:32;;;;;;;16.63;3.67;;;;;;;;;;4972313;28;20019;-33
2022/01/24 09:26:59;;;;;;;9.13;3.10;;;;;;;;;;4972133;28;20034;-35
2022/01/24 09:29:26;;;;;;;23.33;4.30;;;;;;;;;;4971988;28;20031;-34
2022/01/24 09:31:53;;;;;;;8.93;3.33;;;;;;;;;;4974094;28;20038;-35
2022/01/24 09:34:20;;;;;;;9.10;2.75;;;;;;;;;;4975576;28;20054;-34
2022/01/24 09:36:48;;;;;;;13.75;3.25;;;;;;;;;;4976060;28;20671;-34
2022/01/24 09:39:16;;;;;;;11.85;2.75;;;;;;;;;;4975885;28;20061;-35
2022/01/24 09:41:43;;;;;;;7.22;3.08;;;;;;;;;;4975567;28;20031;-36
2022/01/24 09:44:10;;;;;;;19.73;3.85;;;;;;;;;;4975919;28;20373;-36
2022/01/24 09:46:37;;;;;;;5.88;3.15;;;;;;;;;;4975269;28;20038;-35
2022/01/24 09:49:05;;;;;;;6.55;2.92;;;;;;;;;;4975901;28;20034;-34
2022/01/24 09:51:33;;;;;;;7.88;3.30;;;;;;;;;;4975544;28;20030;-35
2022/01/24 09:54:03;;;;;;;6.30;3.13;;;;;;;;;;4975439;28;20046;-35
2022/01/24 09:56:30;;;;;;;7.68;3.40;;;;;;;;;;4975641;28;20031;-36
2022/01/24 09:58:57;;;;;;;36.97;4.80;;;;;;;;;;4975223;28;20041;-36
2022/01/24 10:01:24;;;;;;;42.60;4.47;;;;;;;;;;4976707;28;20101;-34
2022/01/24 10:04:11;;;;;;;27.17;4.57;;;;;;;;;;4977642;28;20027;-35
2022/01/24 10:07:00;;;;;;;55.78;6.00;;;;;;;;;;4976021;28;20023;-35
2022/01/24 10:09:34;;;;;;;42.35;5.13;;;;;;;;;;4975192;28;20481;-34
2022/01/24 10:12:03;;;;;;;64.57;6.20;;;;;;;;;;4975970;28;20354;-34
2022/01/24 10:17:23;;;;;;;22.90;4.35;;;;;;;;;;4975961;28;20046;-35
2022/01/24 10:19:50;;;;;;;16.98;3.58;;;;;;;;;;4975662;28;20070;-35
2022/01/24 10:22:21;;;;;;;17.17;3.70;;;;;;;;;;4975107;28;20086;-36
2022/01/24 10:24:56;;;;;;;21.17;3.70;;;;;;;;;;4975790;28;20043;-36
2022/01/24 10:27:24;;;;;;;17.63;3.53;;;;;;;;;;4974825;28;20042;-35
2022/01/24 10:29:53;;;;;;;12.18;3.72;;;;;;;;;;4975563;28;20042;-36
2022/01/24 10:32:29;;;;;;;19.30;3.72;;;;;;;;;;4975000;28;20046;-35
2022/01/24 10:34:56;;;;;;;17.13;3.30;;;;;;;;;;4975036;28;20023;-35
2022/01/24 10:37:23;;;;;;;17.00;3.10;;;;;;;;;;4975376;28;20033;-36
2022/01/24 10:39:58;;;;;;;21.48;3.20;;;;;;;;;;4974747;28;20066;-36
2022/01/24 10:45:11;;;;;;;20.65;3.53;;;;;;;;;;4975432;28;20054;-34
2022/01/24 10:47:44;;;;;;;13.93;3.40;;;;;;;;;;4974795;28;20030;-36
2022/01/24 10:50:12;;;;;;;16.55;3.22;;;;;;;;;;4975369;28;20393;-36
2022/01/24 10:52:39;;;;;;;15.38;3.40;;;;;;;;;;4974643;28;20038;-36
2022/01/24 10:55:12;;;;;;;11.93;3.03;;;;;;;;;;4975183;28;20035;-36
2022/01/24 10:57:41;;;;;;;13.50;4.03;;;;;;;;;;4974817;28;20023;-35
2022/01/24 11:00:13;;;;;;;28.50;4.97;;;;;;;;;;4974875;28;20031;-36
2022/01/24 11:02:42;;;;;;;32.90;4.75;;;;;;;;;;4974818;28;20058;-35
2022/01/24 11:05:13;;;;;;;19.75;4.40;;;;;;;;;;4974325;28;20027;-36
2022/01/24 11:07:50;;;;;;;17.60;3.95;;;;;;;;;;4974773;28;20035;-36
2022/01/24 11:10:17;;;;;;;27.15;4.22;;;;;;;;;;4974333;28;20038;-35
2022/01/24 11:12:45;;;;;;;24.25;4.35;;;;;;;;;;4974595;28;20378;-36
2022/01/24 11:15:12;;;;;;;17.45;4.03;;;;;;;;;;4974782;28;20039;-36
2022/01/24 11:17:40;;;;;;;35.65;4.97;;;;;;;;;;4974042;28;20412;-36
2022/01/24 11:20:11;;;;;;;40.63;5.07;;;;;;;;;;4974636;28;20035;-35
2022/01/24 11:22:44;;;;;;;29.90;4.10;;;;;;;;;;4974040;28;20042;-36
2022/01/24 11:25:12;;;;;;;41.85;4.70;;;;;;;;;;4974255;28;20093;-36
2022/01/24 11:27:40;;;;;;;8.63;2.40;;;;;;;;;;4974404;28;20019;-35
2022/01/24 11:30:20;;;;;;;22.23;3.55;;;;;;;;;;4973936;28;20035;-36
2022/01/24 11:32:52;;;;;;;19.63;2.60;;;;;;;;;;4974248;28;20105;-36
2022/01/24 11:35:29;;;;;;;21.77;2.88;;;;;;;;;;4973879;28;20033;-35
2022/01/24 11:37:57;;;;;;;14.23;1.98;;;;;;;;;;4974598;28;20081;-36
2022/01/24 11:40:24;;;;;;;17.83;2.08;;;;;;;;;;4973998;28;20026;-36
2022/01/24 11:42:51;;;;;;;27.67;2.40;;;;;;;;;;4973918;28;20098;-36
2022/01/24 11:45:33;;;;;;;9.02;1.75;;;;;;;;;;4974073;28;20052;-35
2022/01/24 11:48:20;;;;;;;20.88;2.10;;;;;;;;;;4973379;28;20039;-35
2022/01/24 11:51:03;;;;;;;14.93;1.63;;;;;;;;;;4974011;28;20035;-36
2022/01/24 11:53:32;;;;;;;8.32;1.50;;;;;;;;;;4973514;28;20477;-35
2022/01/24 11:56:17;;;;;;;10.00;1.52;;;;;;;;;;4973742;28;20113;-36
2022/01/24 11:58:44;;;;;;;36.80;3.30;;;;;;;;;;4973651;28;20046;-36
2022/01/24 12:01:18;;;;;;;38.00;3.17;;;;;;;;;;4973527;28;20045;-35
2022/01/24 12:03:52;;;;;;;9.02;1.50;;;;;;;;;;4973435;28;20038;-35
2022/01/24 12:06:20;;;;;;;10.82;1.40;;;;;;;;;;4971876;28;20034;-36
2022/01/24 12:08:47;;;;;;;14.88;2.15;;;;;;;;;;4973257;28;20397;-36
2022/01/24 12:11:18;;;;;;;46.55;4.40;;;;;;;;;;4972927;28;20039;-35
2022/01/24 12:13:47;;;;;;;17.92;2.55;;;;;;;;;;4973409;28;20049;-36
2022/01/24 12:16:15;;;;;;;26.10;2.75;;;;;;;;;;4973506;28;20077;-36
2022/01/24 12:18:45;;;;;;;23.17;2.90;;;;;;;;;;4966993;28;20023;-36
2022/01/24 12:21:13;;;;;;;27.00;3.53;;;;;;;;;;4966606;28;20037;-35
2022/01/24 12:23:42;;;;;;;25.25;3.35;;;;;;;;;;4960782;28;20057;-36
2022/01/24 12:26:15;;;;;;;27.98;3.30;;;;;;;;;;4960896;28;20409;-36
2022/01/24 12:28:45;;;;;;;16.58;2.40;;;;;;;;;;4961881;28;20464;-36
2022/01/24 12:31:20;;;;;;;18.42;2.92;;;;;;;;;;4963510;28;20383;-36
2022/01/24 12:33:56;;;;;;;11.02;1.70;;;;;;;;;;4971182;28;20137;-35
2022/01/24 12:36:39;;;;;;;18.65;2.40;;;;;;;;;;4968363;28;20039;-36
2022/01/24 12:39:20;;;;;;;18.10;2.75;;;;;;;;;;4965479;28;20039;-36
2022/01/24 12:41:51;;;;;;;12.55;1.60;;;;;;;;;;4967928;28;20027;-35
2022/01/24 12:47:07;;;;;;;55.58;4.22;;;;;;;;;;4970865;28;20038;-35
2022/01/24 12:49:34;;;;;;;57.58;5.18;;;;;;;;;;4970481;28;20118;-35
2022/01/24 12:52:06;;;;;;;26.75;2.92;;;;;;;;;;4965496;28;20093;-34
2022/01/24 12:54:34;;;;;;;32.88;1.80;;;;;;;;;;4969810;28;20166;-35
2022/01/24 12:57:06;;;;;;;31.00;3.90;;;;;;;;;;4969422;28;20042;-39
2022/01/24 12:59:34;;;;;;;14.38;2.05;;;;;;;;;;4960667;28;20027;-41
2022/01/24 13:02:03;;;;;;;15.85;1.65;;;;;;;;;;4962589;28;20035;-36
2022/01/24 13:04:34;;;;;;;11.43;1.67;;;;;;;;;;4961211;28;20494;-37
2022/01/24 13:07:03;;;;;;;11.38;1.60;;;;;;;;;;4966150;28;20062;-37
2022/01/24 13:09:30;;;;;;;83.80;6.80;;;;;;;;;;4959976;28;20112;-38
2022/01/24 13:12:04;;;;;;;52.60;4.55;;;;;;;;;;4963980;28;20070;-38
2022/01/24 13:14:45;;;;;;;25.08;2.42;;;;;;;;;;4969117;28;20045;-36
2022/01/24 13:22:53;;;;;;;24.17;2.30;;;;;;;;;;4966806;28;20124;-38
2022/01/24 13:25:27;;;;;;;14.82;2.40;;;;;;;;;;4968916;28;20073;-37
2022/01/24 13:27:56;;;;;;;12.90;2.22;;;;;;;;;;4969091;28;20488;-38
2022/01/24 13:30:26;;;;;;;11.60;1.58;;;;;;;;;;4977186;28;20614;-37
2022/01/24 13:33:00;;;;;;;22.10;1.80;;;;;;;;;;4969488;28;20102;-36
2022/01/24 13:35:41;;;;;;;19.02;1.65;;;;;;;;;;4969141;28;20390;-37
2022/01/24 13:38:09;;;;;;;9.27;1.48;;;;;;;;;;4970007;28;20034;-38
2022/01/24 13:40:36;;;;;;;13.73;1.20;;;;;;;;;;4970743;28;20019;-37
2022/01/24 13:43:04;;;;;;;16.13;1.33;;;;;;;;;;4967656;28;20056;-37
2022/01/24 13:45:38;;;;;;;15.38;1.65;;;;;;;;;;4964460;28;20110;-37
2022/01/24 13:48:06;;;;;;;17.75;2.05;;;;;;;;;;4955930;28;20395;-36
2022/01/24 13:50:34;;;;;;;12.57;1.83;;;;;;;;;;4961581;28;20038;-37
2022/01/24 13:53:01;;;;;;;15.25;1.83;;;;;;;;;;4968077;28;20114;-38
2022/01/24 13:55:28;;;;;;;9.40;1.40;;;;;;;;;;4963624;28;20034;-36
2022/01/24 13:57:55;;;;;;;19.85;3.00;;;;;;;;;;4953688;28;20121;-36
2022/01/24 14:00:25;;;;;;;10.27;2.17;;;;;;;;;;4962368;28;20043;-38
2022/01/24 14:03:06;;;;;;;16.75;1.60;;;;;;;;;;4960394;28;20023;-37
2022/01/24 14:05:33;;;;;;;7.60;1.77;;;;;;;;;;4965945;28;20027;-38
2022/01/24 14:08:13;;;;;;;15.43;1.98;;;;;;;;;;4961952;28;20035;-39
2022/01/24 14:10:40;;;;;;;10.57;1.63;;;;;;;;;;4969260;28;20054;-38
2022/01/24 14:13:08;;;;;;;13.23;1.83;;;;;;;;;;4960293;28;20076;-37
2022/01/24 14:15:54;;;;;;;7.25;2.00;;;;;;;;;;4968402;28;20042;-37
2022/01/24 14:18:29;;;;;;;10.15;2.00;;;;;;;;;;4961231;28;20046;-36
2022/01/24 14:21:09;;;;;;;12.20;2.10;;;;;;;;;;4966656;28;20046;-37
2022/01/24 14:23:38;;;;;;;10.48;1.80;;;;;;;;;;4966512;28;20184;-37
2022/01/24 14:26:17;;;;;;;13.02;2.25;;;;;;;;;;4963391;28;20477;-36
2022/01/24 14:28:45;;;;;;;10.35;1.65;;;;;;;;;;4963870;28;20141;-37
2022/01/24 14:31:14;;;;;;;12.73;1.70;;;;;;;;;;4972264;28;20150;-36
2022/01/24 14:33:42;;;;;;;11.02;2.08;;;;;;;;;;4972209;28;20350;-37
2022/01/24 14:36:18;;;;;;;9.68;1.98;;;;;;;;;;4968976;28;20031;-37
2022/01/24 14:38:47;;;;;;;10.07;1.77;;;;;;;;;;4967073;28;20031;-37
2022/01/24 14:41:37;;;;;;;5.80;1.42;;;;;;;;;;4968663;28;20062;-41
2022/01/24 14:46:54;;;;;;;9.00;1.80;;;;;;;;;;4966326;28;20133;-38
2022/01/24 14:49:24;;;;;;;11.13;1.85;;;;;;;;;;4962064;28;20129;-38
2022/01/24 14:51:52;;;;;;;15.48;1.65;;;;;;;;;;4970687;28;20042;-37
2022/01/24 14:54:21;;;;;;;6.85;1.77;;;;;;;;;;4963739;28;20106;-38
2022/01/24 14:56:49;;;;;;;11.70;1.45;;;;;;;;;;4971720;28;20031;-39
2022/01/24 14:59:16;;;;;;;7.15;2.00;;;;;;;;;;4970980;28;20062;-39
2022/01/24 15:01:43;;;;;;;6.88;1.98;;;;;;;;;;4969281;28;20041;-43
2022/01/24 15:04:10;;;;;;;9.52;1.60;;;;;;;;;;4966066;28;20043;-38
2022/01/24 15:06:38;;;;;;;10.45;2.15;;;;;;;;;;4970568;28;20027;-38
2022/01/24 15:09:13;;;;;;;9.43;1.60;;;;;;;;;;4972977;28;20034;-38
2022/01/24 15:11:41;;;;;;;6.97;1.40;;;;;;;;;;4972018;28;20412;-38
2022/01/24 15:14:20;;;;;;;5.10;1.45;;;;;;;;;;4972404;28;20043;-37
2022/01/24 15:27:13;;;;;;;10.15;1.77;;;;;;;;;;4973704;28;20035;-38
2022/01/24 15:29:40;;;;;;;14.30;2.70;;;;;;;;;;4972640;28;20101;-38
2022/01/24 15:32:08;;;;;;;27.58;3.10;;;;;;;;;;4970703;28;20053;-38
2022/01/24 15:34:40;;;;;;;28.65;2.67;;;;;;;;;;4966099;28;20034;-33
2022/01/24 15:37:08;;;;;;;14.65;2.95;;;;;;;;;;4972699;28;20452;-32
2022/01/24 15:39:36;;;;;;;11.15;2.58;;;;;;;;;;4972443;28;20113;-32
2022/01/24 15:42:56;;;;;;;12.85;2.78;;;;;;;;;;4972447;28;20393;-32
2022/01/24 15:50:12;;;;;;;7.43;2.40;;;;;;;;;;4972854;28;20603;-32
2022/01/24 15:52:40;;;;;;;11.73;2.47;;;;;;;;;;4973152;28;20701;-32
2022/01/24 15:55:08;;;;;;;12.55;2.65;;;;;;;;;;4972711;28;20030;-32
2022/01/24 15:57:45;;;;;;;13.57;2.85;;;;;;;;;;4972418;28;20058;-33
2022/01/24 16:00:19;;;;;;;15.32;2.95;;;;;;;;;;4972935;28;20504;-32
2022/01/24 16:02:47;;;;;;;10.93;2.47;;;;;;;;;;4972823;28;20035;-33
2022/01/24 16:05:15;;;;;;;10.52;2.55;;;;;;;;;;4972771;28;20050;-32
2022/01/24 16:07:42;;;;;;;14.77;2.88;;;;;;;;;;4972513;28;20048;-33
2022/01/24 16:10:20;;;;;;;11.98;2.67;;;;;;;;;;4972605;28;20034;-32
2022/01/24 16:12:49;;;;;;;12.65;3.17;;;;;;;;;;4972030;28;20030;-32
2022/01/24 16:15:20;;;;;;;8.55;2.28;;;;;;;;;;4971630;28;20745;-33
2022/01/24 16:17:48;;;;;;;20.88;2.88;;;;;;;;;;4972242;28;20029;-32
2022/01/24 16:25:37;;;;;;;12.73;3.38;;;;;;;;;;4960822;28;20796;-32
2022/01/24 16:28:09;;;;;;;16.90;3.20;;;;;;;;;;4967288;28;20027;-32
2022/01/24 16:30:37;;;;;;;15.87;2.60;;;;;;;;;;4967238;28;20082;-32
2022/01/24 16:33:04;;;;;;;11.82;2.72;;;;;;;;;;4958909;28;20093;-32
2022/01/24 16:35:32;;;;;;;14.23;2.80;;;;;;;;;;4964076;28;20100;-32
2022/01/24 16:38:00;;;;;;;15.20;2.90;;;;;;;;;;4962727;28;20125;-33
2022/01/24 16:40:31;;;;;;;13.60;2.90;;;;;;;;;;4958760;28;20038;-33
2022/01/24 16:43:23;;;;;;;14.57;3.35;;;;;;;;;;4969285;28;20045;-36
2022/01/24 16:48:32;;;;;;;;;;;;;;;;;;4964953;28;20047;-34
2022/01/24 16:51:00;;;;;;;33.20;8.80;;;;;;;;;;4954033;28;19940;-34
2022/01/24 16:53:28;;;;;;;48.60;13.05;;;;;;;;;;4961850;28;20050;-37
2022/01/24 16:55:58;;;;;;;46.67;12.95;;;;;;;;;;4960790;28;20058;-38